Time;durP1;ratioP1;P1;durP2;ratioP2;P2;SDS_P1;SDS_P2;PMS_P1;PMS_P2;Temp;Humidity;BMP_temperature;BMP_pressure;BME280_temperature;BME280_humidity;BME280_pressure;Samples;Min_cycle;Max_cycle;Signal;HPM_P1;HPM_P2
2023/06/28 00:01:47;;;;;;;;;;;;;;;17.58;95.67;95003.44;5095512;28;1041;-52
2023/06/28 00:04:13;;;;;;;;;;;;;;;17.75;94.91;95007.38;5095542;28;2001;-52
2023/06/28 00:06:39;;;;;;;;;;;;;;;18.16;92.37;95001.94;5095456;28;2102;-52
2023/06/28 00:09:05;;;;;;;;;;;;;;;17.95;93.01;95001.16;5095485;28;984;-52
2023/06/28 00:11:31;;;;;;;;;;;;;;;17.71;95.22;94999.91;5095191;28;1985;-52
2023/06/28 00:13:57;;;;;;;;;;;;;;;17.80;94.75;95004.06;5100956;28;2475;-52
2023/06/28 00:16:23;;;;;;;;;;;;;;;17.89;94.42;95007.38;5097210;28;2871;-52
2023/06/28 00:18:49;;;;;;;;;;;;;;;17.87;94.21;95001.34;5095274;28;1044;-52
2023/06/28 00:21:15;;;;;;;;;;;;;;;17.76;94.93;95000.94;5095069;28;1500;-52
2023/06/28 00:23:42;;;;;;;;;;;;;;;17.86;94.68;95005.13;5108393;28;2951;-52
2023/06/28 00:26:09;;;;;;;;;;;;;;;17.82;94.45;95014.66;5113751;28;2906;-52
2023/06/28 00:28:35;;;;;;;;;;;;;;;17.82;94.42;95001.97;5115208;28;1049;-52
2023/06/28 00:31:01;;;;;;;;;;;;;;;17.70;94.73;95004.47;5115535;28;1960;-52
2023/06/28 00:33:27;;;;;;;;;;;;;;;17.42;95.95;95001.97;5115375;28;1336;-52
2023/06/28 00:35:53;;;;;;;;;;;;;;;17.47;96.59;95006.75;5115223;28;1076;-52
2023/06/28 00:38:19;;;;;;;;;;;;;;;17.41;95.97;95008.41;5115292;28;1083;-52
2023/06/28 00:40:45;;;;;;;;;;;;;;;17.31;96.79;95013.41;5114965;28;1053;-52
2023/06/28 00:43:11;;;;;;;;;;;;;;;17.25;97.13;95011.53;5115414;28;969;-52
2023/06/28 00:45:37;;;;;;;;;;;;;;;17.28;96.95;95008.41;5115241;28;1116;-52
2023/06/28 00:48:04;;;;;;;;;;;;;;;17.57;95.72;95020.69;5115316;28;993;-52
2023/06/28 00:50:30;;;;;;;;;;;;;;;17.70;94.63;95009.03;5114895;28;1902;-52
2023/06/28 00:52:56;;;;;;;;;;;;;;;17.72;94.51;95012.38;5114972;28;1029;-52
2023/06/28 00:55:22;;;;;;;;;;;;;;;17.71;94.90;95014.25;5114929;28;1205;-52
2023/06/28 00:57:48;;;;;;;;;;;;;;;17.60;95.34;95020.28;5114773;28;1546;-51
2023/06/28 01:00:15;;;;;;;;;;;;;;;17.41;95.05;95018.41;5114623;28;1250;-52
2023/06/28 01:02:41;;;;;;;;;;;;;;;17.37;95.33;95021.50;5114722;28;1049;-52
2023/06/28 01:05:13;;;;;;;;;;;;;;;17.64;93.86;95018.84;5114936;28;996;-52
2023/06/28 01:07:40;;;;;;;;;;;;;;;17.50;93.81;95022.56;5115110;28;1047;-52
2023/06/28 01:10:06;;;;;;;;;;;;;;;17.43;93.60;95013.63;5114556;28;1902;-52
2023/06/28 01:12:33;;;;;;;;;;;;;;;17.56;93.56;95013.63;5114459;28;1900;-52
2023/06/28 01:14:59;;;;;;;;;;;;;;;17.53;93.09;95014.88;5114782;28;1032;-52
2023/06/28 01:17:25;;;;;;;;;;;;;;;17.43;93.91;95017.13;5114599;28;1029;-52
2023/06/28 01:19:54;;;;;;;;;;;;;;;17.25;93.93;95023.16;5114523;28;1092;-52
2023/06/28 01:22:20;;;;;;;;;;;;;;;17.34;94.49;95021.94;5114303;28;1041;-52
2023/06/28 01:24:46;;;;;;;;;;;;;;;17.09;94.47;95019.00;5114417;28;1027;-52
2023/06/28 01:27:13;;;;;;;;;;;;;;;17.07;95.17;95021.03;5114193;28;1088;-52
2023/06/28 01:29:39;;;;;;;;;;;;;;;17.17;95.25;95021.50;5114236;28;1989;-52
2023/06/28 01:32:06;;;;;;;;;;;;;;;17.24;93.95;95015.25;5114390;28;1143;-52
2023/06/28 01:34:32;;;;;;;;;;;;;;;17.04;94.61;95028.75;5114275;28;968;-52
2023/06/28 01:37:00;;;;;;;;;;;;;;;17.08;95.15;95021.91;5108667;28;2214;-52
2023/06/28 01:39:26;;;;;;;;;;;;;;;17.19;94.52;95024.00;5108954;28;2876;-52
2023/06/28 01:41:53;;;;;;;;;;;;;;;17.25;94.13;95014.22;5114394;28;1047;-52
2023/06/28 01:44:19;;;;;;;;;;;;;;;17.43;93.43;95005.50;5114247;28;988;-52
2023/06/28 01:46:46;;;;;;;;;;;;;;;17.25;93.97;95012.34;5114232;28;1060;-52
2023/06/28 01:49:12;;;;;;;;;;;;;;;17.13;94.49;95009.44;5114055;28;960;-52
2023/06/28 01:51:39;;;;;;;;;;;;;;;17.17;94.23;95013.38;5114251;28;1906;-52
2023/06/28 01:54:05;;;;;;;;;;;;;;;17.22;93.97;95012.75;5113253;28;1555;-52
2023/06/28 01:56:31;;;;;;;;;;;;;;;17.33;93.25;95004.03;5114051;28;1772;-52
2023/06/28 01:58:57;;;;;;;;;;;;;;;17.04;94.38;95009.84;5113892;28;1218;-52
2023/06/28 02:01:23;;;;;;;;;;;;;;;16.86;95.61;95011.22;5113793;28;1292;-52
2023/06/28 02:03:49;;;;;;;;;;;;;;;16.85;95.83;95011.44;5114023;28;981;-52
2023/06/28 02:06:15;;;;;;;;;;;;;;;16.85;96.37;95006.88;5113784;28;1045;-52
2023/06/28 02:08:41;;;;;;;;;;;;;;;16.91;95.74;95011.47;5113980;28;981;-52
2023/06/28 02:11:07;;;;;;;;;;;;;;;16.95;95.12;95011.88;5113659;28;1906;-52
2023/06/28 02:13:33;;;;;;;;;;;;;;;17.03;95.80;95013.56;5113941;28;1095;-52
2023/06/28 02:16:01;;;;;;;;;;;;;;;17.06;95.77;95011.28;5113932;28;1039;-52
2023/06/28 02:18:27;;;;;;;;;;;;;;;16.81;95.86;95011.00;5113561;28;1128;-52
2023/06/28 02:20:53;;;;;;;;;;;;;;;16.79;96.26;95016.59;5113889;28;1034;-53
2023/06/28 02:23:19;;;;;;;;;;;;;;;16.89;95.34;95010.84;5113677;28;977;-53
2023/06/28 02:25:45;;;;;;;;;;;;;;;16.70;96.04;95015.09;5113878;28;1016;-52
2023/06/28 02:28:12;;;;;;;;;;;;;;;16.64;96.36;95017.75;5113428;28;1558;-52
2023/06/28 02:30:38;;;;;;;;;;;;;;;16.56;95.79;95014.22;5113595;28;1910;-52
2023/06/28 02:33:04;;;;;;;;;;;;;;;16.53;96.62;95017.31;5113646;28;988;-52
2023/06/28 02:35:31;;;;;;;;;;;;;;;16.64;96.19;95020.47;5113475;28;1104;-52
2023/06/28 02:37:57;;;;;;;;;;;;;;;16.64;95.03;95004.25;5113732;28;1203;-52
2023/06/28 02:40:24;;;;;;;;;;;;;;;16.18;97.41;95006.59;5112451;28;1033;-52
2023/06/28 02:42:50;;;;;;;;;;;;;;;16.14;98.72;95012.56;5113443;28;1870;-52
2023/06/28 02:45:16;;;;;;;;;;;;;;;16.40;97.75;95001.06;5113527;28;1043;-52
2023/06/28 02:47:42;;;;;;;;;;;;;;;16.68;94.95;95011.78;5113385;28;1061;-52
2023/06/28 02:50:09;;;;;;;;;;;;;;;16.49;95.71;95009.84;5113685;28;2000;-52
2023/06/28 02:52:35;;;;;;;;;;;;;;;16.46;96.95;95012.94;5113234;28;1031;-52
2023/06/28 02:55:01;;;;;;;;;;;;;;;16.44;96.86;95023.09;5113403;28;1004;-52
2023/06/28 02:57:27;;;;;;;;;;;;;;;16.54;96.49;95019.00;5113352;28;1864;-52
2023/06/28 02:59:53;;;;;;;;;;;;;;;16.49;97.07;95013.38;5113111;28;1080;-52
2023/06/28 03:02:19;;;;;;;;;;;;;;;16.54;96.70;95023.53;5113482;28;1014;-52
2023/06/28 03:04:45;;;;;;;;;;;;;;;16.40;97.07;95033.44;5115367;28;1017;-52
2023/06/28 03:07:14;;;;;;;;;;;;;;;16.22;98.56;95028.59;5116855;28;1037;-53
2023/06/28 03:09:41;;;;;;;;;;;;;;;16.17;99.21;95031.88;5117199;28;1987;-52
2023/06/28 03:12:07;;;;;;;;;;;;;;;16.56;96.50;95032.28;5117174;28;976;-52
2023/06/28 03:14:33;;;;;;;;;;;;;;;16.62;95.68;95030.63;5117044;28;1050;-52
2023/06/28 03:17:00;;;;;;;;;;;;;;;16.46;96.00;95038.03;5117163;28;1016;-52
2023/06/28 03:19:26;;;;;;;;;;;;;;;16.36;96.95;95034.88;5117159;28;1039;-52
2023/06/28 03:21:52;;;;;;;;;;;;;;;16.16;98.38;95032.94;5117014;28;1044;-52
2023/06/28 03:24:18;;;;;;;;;;;;;;;16.33;97.48;95035.28;5116665;28;1046;-52
2023/06/28 03:26:44;;;;;;;;;;;;;;;16.61;95.84;95032.50;5116642;28;1108;-52
2023/06/28 03:29:10;;;;;;;;;;;;;;;16.75;95.13;95034.22;5116857;28;1012;-52
2023/06/28 03:31:36;;;;;;;;;;;;;;;16.76;95.81;95029.66;5116567;28;1980;-52
2023/06/28 03:34:02;;;;;;;;;;;;;;;16.62;96.91;95030.63;5116659;28;1041;-52
2023/06/28 03:36:29;;;;;;;;;;;;;;;16.66;97.04;95032.75;5116183;28;989;-52
2023/06/28 03:38:55;;;;;;;;;;;;;;;16.86;96.22;95029.31;5116460;28;967;-52
2023/06/28 03:41:21;;;;;;;;;;;;;;;16.77;96.81;95028.63;5116644;28;960;-52
2023/06/28 03:43:47;;;;;;;;;;;;;;;16.52;98.25;95034.56;5116399;28;1044;-52
2023/06/28 03:46:13;;;;;;;;;;;;;;;16.67;98.20;95033.56;5116274;28;1040;-52
2023/06/28 03:48:39;;;;;;;;;;;;;;;16.94;96.91;95035.38;5116572;28;1050;-52
2023/06/28 03:51:05;;;;;;;;;;;;;;;17.20;95.62;95035.63;5116323;28;1909;-52
2023/06/28 03:53:31;;;;;;;;;;;;;;;17.41;95.69;95027.31;5116028;28;1112;-52
2023/06/28 03:55:57;;;;;;;;;;;;;;;17.44;96.09;95026.09;5116134;28;1527;-52
2023/06/28 03:58:23;;;;;;;;;;;;;;;17.39;97.25;95023.19;5115967;28;1439;-52
2023/06/28 04:00:49;;;;;;;;;;;;;;;17.42;97.29;95018.19;5116068;28;1012;-53
2023/06/28 04:03:18;;;;;;;;;;;;;;;17.49;96.73;95021.75;5116227;27;1020;-52
2023/06/28 04:05:44;;;;;;;;;;;;;;;17.76;96.22;95011.75;5115800;28;1080;-52
2023/06/28 04:08:11;;;;;;;;;;;;;;;18.01;94.77;95013.00;5115792;28;992;-52
2023/06/28 04:10:38;;;;;;;;;;;;;;;18.08;97.02;95020.06;5116069;28;1901;-52
2023/06/28 04:13:04;;;;;;;;;;;;;;;18.21;94.68;95021.06;5115738;28;1029;-53
2023/06/28 04:15:30;;;;;;;;;;;;;;;18.35;94.91;95017.28;5115451;28;1124;-53
2023/06/28 04:17:56;;;;;;;;;;;;;;;18.37;94.21;95023.31;5115654;28;1089;-54
2023/06/28 04:20:22;;;;;;;;;;;;;;;18.47;93.79;95025.59;5115769;28;977;-53
2023/06/28 04:22:49;;;;;;;;;;;;;;;18.60;91.20;95027.41;5115460;28;1040;-54
2023/06/28 04:25:15;;;;;;;;;;;;;;;18.72;89.16;95028.41;5115785;28;1209;-53
2023/06/28 04:27:40;;;;;;;;;;;;;;;18.82;88.20;95028.81;5115487;28;1104;-53
2023/06/28 04:30:07;;;;;;;;;;;;;;;18.94;89.19;95025.44;5115565;28;1906;-53
2023/06/28 04:32:33;;;;;;;;;;;;;;;19.22;88.42;95025.91;5115323;28;1025;-54
2023/06/28 04:35:01;;;;;;;;;;;;;;;19.49;87.14;95031.13;5115454;28;996;-53
2023/06/28 04:37:27;;;;;;;;;;;;;;;19.62;86.34;95027.50;5115168;28;959;-53
2023/06/28 04:40:00;;;;;;;;;;;;;;;19.78;86.00;95034.28;5115626;28;984;-53
2023/06/28 04:42:26;;;;;;;;;;;;;;;19.78;85.29;95042.41;5115501;28;1012;-53
2023/06/28 04:44:53;;;;;;;;;;;;;;;19.80;89.45;95029.47;5115257;28;968;-53
2023/06/28 04:47:19;;;;;;;;;;;;;;;19.73;89.15;95042.25;5115071;28;1092;-53
2023/06/28 04:49:47;;;;;;;;;;;;;;;19.98;87.75;95031.41;5114929;28;1925;-53
2023/06/28 04:52:14;;;;;;;;;;;;;;;20.13;87.25;95033.75;5114845;28;1100;-53
2023/06/28 04:54:41;;;;;;;;;;;;;;;20.22;83.76;95040.56;5115205;28;1038;-53
2023/06/28 04:57:07;;;;;;;;;;;;;;;20.28;82.68;95032.38;5115125;28;1583;-53
2023/06/28 04:59:34;;;;;;;;;;;;;;;20.39;80.29;95036.19;5114641;28;1084;-53
2023/06/28 05:02:03;;;;;;;;;;;;;;;20.52;81.21;95034.41;5114898;28;1055;-53
2023/06/28 05:04:31;;;;;;;;;;;;;;;20.63;79.98;95036.41;5114980;28;984;-53
2023/06/28 05:06:57;;;;;;;;;;;;;;;20.74;80.30;95040.25;5114724;28;1068;-53
2023/06/28 05:09:23;;;;;;;;;;;;;;;20.85;79.23;95043.03;5114742;28;1088;-53
2023/06/28 05:11:49;;;;;;;;;;;;;;;20.87;79.30;95040.09;5113579;28;1914;-53
2023/06/28 05:14:15;;;;;;;;;;;;;;;20.86;78.41;95038.44;5114806;28;1095;-53
2023/06/28 05:16:41;;;;;;;;;;;;;;;20.97;80.60;95034.13;5114568;28;1049;-54
2023/06/28 05:19:07;;;;;;;;;;;;;;;21.03;81.84;95025.88;5114478;28;1239;-54
2023/06/28 05:21:33;;;;;;;;;;;;;;;21.05;81.92;95026.47;5114340;28;1021;-53
2023/06/28 05:23:59;;;;;;;;;;;;;;;21.06;85.06;95025.41;5114696;28;976;-53
2023/06/28 05:26:25;;;;;;;;;;;;;;;21.13;83.76;95027.22;5114248;28;1105;-53
2023/06/28 05:28:51;;;;;;;;;;;;;;;21.18;81.99;95027.34;5113655;28;1299;-53
2023/06/28 05:31:17;;;;;;;;;;;;;;;21.52;81.92;95036.72;5114487;28;1922;-53
2023/06/28 05:33:43;;;;;;;;;;;;;;;21.71;81.01;95033.94;5112070;28;2462;-52
2023/06/28 05:36:10;;;;;;;;;;;;;;;21.81;80.40;95045.06;5099497;28;2828;-52
2023/06/28 05:38:36;;;;;;;;;;;;;;;21.76;79.11;95043.06;5092962;28;972;-53
2023/06/28 05:41:11;;;;;;;;;;;;;;;21.82;77.93;95046.75;5094099;28;1066;-53
2023/06/28 05:43:37;;;;;;;;;;;;;;;21.93;77.36;95045.94;5111857;28;2890;-53
2023/06/28 05:46:04;;;;;;;;;;;;;;;22.01;75.88;95040.13;5114069;28;1043;-52
2023/06/28 05:48:32;;;;;;;;;;;;;;;22.26;74.80;95041.00;5113912;28;988;-52
2023/06/28 05:50:58;;;;;;;;;;;;;;;22.30;75.58;95044.91;5114190;28;1913;-52
2023/06/28 05:53:25;;;;;;;;;;;;;;;22.35;76.19;95050.47;5113802;28;1033;-52
2023/06/28 05:55:51;;;;;;;;;;;;;;;22.56;75.29;95040.88;5113969;28;1095;-52
2023/06/28 05:58:18;;;;;;;;;;;;;;;22.58;73.59;95053.19;5113485;28;1404;-52
2023/06/28 06:00:44;;;;;;;;;;;;;;;22.68;74.50;95049.84;5113895;28;1032;-53
2023/06/28 06:03:10;;;;;;;;;;;;;;;22.70;73.48;95049.59;5113764;28;1032;-52
2023/06/28 06:05:39;;;;;;;;;;;;;;;22.78;73.06;95047.34;5114056;28;1016;-53
2023/06/28 06:08:05;;;;;;;;;;;;;;;22.84;75.05;95052.91;5113848;28;1041;-53
2023/06/28 06:10:32;;;;;;;;;;;;;;;22.80;74.56;95058.00;5113902;28;1917;-52
2023/06/28 06:12:58;;;;;;;;;;;;;;;22.92;75.44;95056.09;5113687;28;1057;-53
2023/06/28 06:15:24;;;;;;;;;;;;;;;22.93;75.33;95062.34;5105553;28;2901;-52
2023/06/28 06:17:50;;;;;;;;;;;;;;;22.97;74.58;95056.19;5093314;28;1054;-53
2023/06/28 06:20:16;;;;;;;;;;;;;;;22.86;73.66;95051.59;5093236;28;1120;-52
2023/06/28 06:22:43;;;;;;;;;;;;;;;23.05;73.25;95052.28;5093222;28;1869;-53
2023/06/28 06:25:09;;;;;;;;;;;;;;;23.22;70.70;95049.63;5093065;28;1047;-54
2023/06/28 06:27:35;;;;;;;;;;;;;;;23.30;72.56;95046.50;5093146;28;1088;-54
2023/06/28 06:30:02;;;;;;;;;;;;;;;23.59;73.08;95051.94;5092883;28;1909;-54
2023/06/28 06:32:28;;;;;;;;;;;;;;;23.78;70.67;95050.69;5093367;28;962;-53
2023/06/28 06:34:57;;;;;;;;;;;;;;;23.81;71.43;95048.53;5093088;28;1108;-53
2023/06/28 06:37:24;;;;;;;;;;;;;;;23.81;71.93;95051.25;5093159;28;1054;-54
2023/06/28 06:39:50;;;;;;;;;;;;;;;23.77;70.96;95042.69;5095735;28;969;-54
2023/06/28 06:42:16;;;;;;;;;;;;;;;23.96;70.53;95049.63;5105022;28;2494;-54
2023/06/28 06:44:42;;;;;;;;;;;;;;;23.95;70.96;95047.97;5096699;28;1013;-54
2023/06/28 06:47:08;;;;;;;;;;;;;;;23.99;71.01;95050.22;5097250;28;1001;-54
2023/06/28 06:49:34;;;;;;;;;;;;;;;24.15;68.69;95044.75;5097121;28;1046;-54
2023/06/28 06:52:00;;;;;;;;;;;;;;;24.25;69.16;95038.63;5096968;28;1902;-54
2023/06/28 06:54:29;;;;;;;;;;;;;;;24.43;66.50;95040.25;5097029;28;1012;-54
2023/06/28 06:56:55;;;;;;;;;;;;;;;24.61;66.81;95025.50;5105451;28;1471;-54
2023/06/28 06:59:23;;;;;;;;;;;;;;;24.63;64.96;95030.72;5116963;28;1088;-54
2023/06/28 07:01:50;;;;;;;;;;;;;;;24.73;66.07;95020.75;5117354;28;982;-54
2023/06/28 07:04:17;;;;;;;;;;;;;;;24.87;67.25;95021.22;5117275;28;1054;-54
2023/06/28 07:06:46;;;;;;;;;;;;;;;24.61;69.34;95017.31;5117130;28;1039;-54
2023/06/28 07:09:16;;;;;;;;;;;;;;;24.43;66.14;95020.28;5116994;28;1000;-54
2023/06/28 07:11:42;;;;;;;;;;;;;;;24.77;67.98;95015.59;5116809;28;1902;-54
2023/06/28 07:14:08;;;;;;;;;;;;;;;24.85;65.90;95012.44;5116784;28;1028;-54
2023/06/28 07:16:34;;;;;;;;;;;;;;;24.93;63.32;95011.16;5116961;28;1119;-54
2023/06/28 07:19:01;;;;;;;;;;;;;;;25.02;65.90;95009.63;5117003;28;1062;-54
2023/06/28 07:21:27;;;;;;;;;;;;;;;25.00;65.21;94997.28;5116941;28;1034;-54
2023/06/28 07:23:54;;;;;;;;;;;;;;;25.17;67.02;94998.03;5116861;28;992;-54
2023/06/28 07:26:20;;;;;;;;;;;;;;;25.49;66.92;94998.13;5116399;28;1048;-54
2023/06/28 07:28:46;;;;;;;;;;;;;;;25.63;62.55;94992.22;5116827;27;1025;-54
2023/06/28 07:31:12;;;;;;;;;;;;;;;25.64;60.66;95002.94;5116385;28;1934;-54
2023/06/28 07:33:41;;;;;;;;;;;;;;;25.68;62.23;95005.97;5116546;28;1127;-54
2023/06/28 07:36:07;;;;;;;;;;;;;;;25.75;59.25;94997.56;5116430;28;1041;-54
2023/06/28 07:38:33;;;;;;;;;;;;;;;25.86;60.77;94989.16;5115072;28;1056;-54
2023/06/28 07:40:59;;;;;;;;;;;;;;;26.14;62.66;94995.41;5116356;28;961;-54
2023/06/28 07:43:25;;;;;;;;;;;;;;;25.79;62.32;94990.47;5111008;27;2547;-54
2023/06/28 07:45:52;;;;;;;;;;;;;;;25.79;60.94;94990.47;5095842;28;943;-54
2023/06/28 07:48:18;;;;;;;;;;;;;;;25.54;63.27;94988.34;5095962;28;1082;-53
2023/06/28 07:50:45;;;;;;;;;;;;;;;25.49;64.12;94987.19;5104004;28;2526;-54
2023/06/28 07:53:11;;;;;;;;;;;;;;;25.40;62.64;94993.38;5112821;28;2507;-54
2023/06/28 07:55:37;;;;;;;;;;;;;;;25.36;65.28;94990.31;5095353;28;1039;-54
2023/06/28 07:58:03;;;;;;;;;;;;;;;25.44;63.17;94986.31;5113461;28;1453;-54
2023/06/28 08:00:30;;;;;;;;;;;;;;;25.64;63.27;94991.16;5115906;28;1099;-54
2023/06/28 08:02:58;;;;;;;;;;;;;;;25.99;62.68;94987.94;5116207;28;955;-53
2023/06/28 08:05:24;;;;;;;;;;;;;;;26.16;61.51;94987.78;5115909;27;1055;-54
2023/06/28 08:07:52;;;;;;;;;;;;;;;26.00;60.94;94984.09;5116052;27;975;-54
2023/06/28 08:10:18;;;;;;;;;;;;;;;25.98;61.75;94989.00;5115967;27;1910;-54
2023/06/28 08:12:44;;;;;;;;;;;;;;;26.37;61.54;94988.75;5115664;28;1028;-54
2023/06/28 08:15:10;;;;;;;;;;;;;;;26.53;56.86;94997.88;5115773;28;1158;-54
2023/06/28 08:17:36;;;;;;;;;;;;;;;26.57;59.05;94984.47;5115835;27;1015;-54
2023/06/28 08:20:02;;;;;;;;;;;;;;;26.92;58.87;94983.84;5115891;28;996;-54
2023/06/28 08:22:28;;;;;;;;;;;;;;;26.64;58.72;94983.16;5115755;27;956;-54
2023/06/28 08:24:54;;;;;;;;;;;;;;;26.55;60.84;94976.50;5115621;28;1043;-54
2023/06/28 08:27:20;;;;;;;;;;;;;;;26.61;57.63;94980.94;5115312;28;1037;-54
2023/06/28 08:29:46;;;;;;;;;;;;;;;26.81;56.66;94982.16;5115718;28;1039;-54
2023/06/28 08:32:12;;;;;;;;;;;;;;;26.75;58.85;94985.94;5115363;28;1926;-54
2023/06/28 08:34:38;;;;;;;;;;;;;;;27.08;58.76;94982.81;5115414;28;1016;-54
2023/06/28 08:37:05;;;;;;;;;;;;;;;27.48;59.04;94988.72;5114290;28;1016;-54
2023/06/28 08:39:31;;;;;;;;;;;;;;;27.39;57.05;94979.34;5115335;28;1032;-54
2023/06/28 08:41:58;;;;;;;;;;;;;;;27.10;56.87;94973.50;5115058;28;1080;-54
2023/06/28 08:44:25;;;;;;;;;;;;;;;27.08;60.28;94971.00;5115220;28;1014;-54
2023/06/28 08:46:53;;;;;;;;;;;;;;;27.18;57.11;94972.94;5115309;28;972;-54
2023/06/28 08:49:19;;;;;;;;;;;;;;;27.51;57.20;94968.94;5114919;28;1854;-54
2023/06/28 08:51:46;;;;;;;;;;;;;;;27.54;59.72;94962.09;5114227;28;2491;-54
2023/06/28 08:54:13;;;;;;;;;;;;;;;27.38;59.08;94959.31;5112972;28;2987;-54
2023/06/28 08:56:40;;;;;;;;;;;;;;;27.39;55.65;94966.44;5114586;28;1520;-54
2023/06/28 08:59:07;;;;;;;;;;;;;;;27.62;59.18;94962.38;5114778;28;1230;-54
2023/06/28 09:01:34;;;;;;;;;;;;;;;27.70;59.39;94962.91;5114789;28;1005;-54
2023/06/28 09:04:00;;;;;;;;;;;;;;;27.90;57.89;94959.38;5114996;28;1045;-54
2023/06/28 09:06:29;;;;;;;;;;;;;;;27.69;57.25;94958.53;5114519;28;1093;-53
2023/06/28 09:08:56;;;;;;;;;;;;;;;27.73;59.43;94954.94;5114794;28;1043;-53
2023/06/28 09:11:22;;;;;;;;;;;;;;;27.91;58.72;94944.56;5113616;28;2501;-53
2023/06/28 09:13:48;;;;;;;;;;;;;;;27.84;58.10;94950.28;5113200;28;2895;-54
2023/06/28 09:16:14;;;;;;;;;;;;;;;27.69;60.02;94945.63;5114689;28;1075;-54
2023/06/28 09:18:40;;;;;;;;;;;;;;;27.37;57.62;94946.66;5114395;28;1037;-54
2023/06/28 09:21:07;;;;;;;;;;;;;;;27.62;60.25;94943.16;5114663;28;1054;-54
2023/06/28 09:23:33;;;;;;;;;;;;;;;27.66;59.21;94932.44;5114507;28;1012;-54
2023/06/28 09:25:59;;;;;;;;;;;;;;;27.48;56.12;94936.53;5114312;28;1068;-54
2023/06/28 09:28:35;;;;;;;;;;;;;;;27.16;58.75;94933.97;5114314;28;1079;-54
2023/06/28 09:31:04;;;;;;;;;;;;;;;27.10;59.72;94933.16;5114309;28;1997;-54
2023/06/28 09:33:31;;;;;;;;;;;;;;;27.25;57.63;94932.41;5114204;28;1047;-54
2023/06/28 09:35:58;;;;;;;;;;;;;;;27.56;60.17;94932.44;5114175;28;1877;-54
2023/06/28 09:38:24;;;;;;;;;;;;;;;27.77;59.66;94922.28;5113904;28;1042;-54
2023/06/28 09:40:57;;;;;;;;;;;;;;;28.19;61.66;94926.66;5113186;28;2474;-54
2023/06/28 09:43:24;;;;;;;;;;;;;;;28.28;54.99;94926.91;5093042;28;2871;-54
2023/06/28 09:45:52;;;;;;;;;;;;;;;28.15;55.43;94923.66;5093751;28;975;-54
2023/06/28 09:48:21;;;;;;;;;;;;;;;28.19;58.26;94922.00;5093610;28;1004;-54
2023/06/28 09:50:47;;;;;;;;;;;;;;;28.10;55.73;94918.16;5093708;28;1909;-54
2023/06/28 09:53:15;;;;;;;;;;;;;;;28.15;61.18;94915.41;5093381;28;1032;-53
2023/06/28 09:55:42;;;;;;;;;;;;;;;28.16;57.14;94908.81;5093617;28;968;-54
2023/06/28 09:58:09;;;;;;;;;;;;;;;28.10;57.14;94914.59;5112340;28;1453;-54
2023/06/28 10:00:36;;;;;;;;;;;;;;;27.83;57.85;94916.50;5113966;28;985;-54
2023/06/28 10:03:04;;;;;;;;;;;;;;;28.00;58.31;94915.41;5113980;28;999;-54
2023/06/28 10:05:32;;;;;;;;;;;;;;;28.31;60.70;94916.19;5113628;28;1088;-54
2023/06/28 10:07:58;;;;;;;;;;;;;;;28.43;59.62;94907.63;5104414;28;2464;-54
2023/06/28 10:10:25;;;;;;;;;;;;;;;28.23;59.06;94900.28;5092170;28;2884;-54
2023/06/28 10:12:52;;;;;;;;;;;;;;;28.08;56.93;94903.03;5093591;28;953;-54
2023/06/28 10:15:21;;;;;;;;;;;;;;;27.87;57.02;94897.56;5092771;28;1028;-54
2023/06/28 10:17:47;;;;;;;;;;;;;;;27.84;57.50;94909.09;5093281;28;1028;-54
2023/06/28 10:20:13;;;;;;;;;;;;;;;27.71;59.12;94904.97;5093015;28;1034;-54
2023/06/28 10:22:40;;;;;;;;;;;;;;;27.43;60.44;94909.06;5093128;28;1119;-54
2023/06/28 10:25:06;;;;;;;;;;;;;;;27.19;59.84;94892.28;5093148;28;1045;-54
2023/06/28 10:27:36;;;;;;;;;;;;;;;27.32;61.26;94893.69;5093317;28;1032;-54
2023/06/28 10:30:02;;;;;;;;;;;;;;;27.63;61.71;94883.56;5093154;28;1905;-54
2023/06/28 10:32:28;;;;;;;;;;;;;;;27.96;57.78;94889.59;5092956;28;953;-54
2023/06/28 10:34:58;;;;;;;;;;;;;;;28.36;56.81;94883.19;5093192;28;1033;-53
2023/06/28 10:37:24;;;;;;;;;;;;;;;28.31;57.74;94885.97;5093140;28;1049;-53
2023/06/28 10:39:51;;;;;;;;;;;;;;;28.27;58.09;94878.53;5093337;28;981;-54
2023/06/28 10:42:20;;;;;;;;;;;;;;;28.40;58.00;94883.44;5093038;28;1034;-54
2023/06/28 10:44:50;;;;;;;;;;;;;;;28.24;57.51;94877.19;5093481;28;1048;-53
2023/06/28 10:47:16;;;;;;;;;;;;;;;28.29;56.84;94868.09;5093044;28;949;-52
2023/06/28 10:49:42;;;;;;;;;;;;;;;28.16;60.16;94870.31;5093094;28;1119;-52
2023/06/28 10:52:12;;;;;;;;;;;;;;;28.14;58.54;94880.78;5093129;28;1902;-53
2023/06/28 10:54:38;;;;;;;;;;;;;;;28.07;57.63;94872.00;5093322;28;965;-52
2023/06/28 10:57:08;;;;;;;;;;;;;;;28.23;58.54;94862.63;5103086;28;1850;-53
2023/06/28 10:59:35;;;;;;;;;;;;;;;28.52;59.11;94870.25;5112208;28;2336;-53
2023/06/28 11:02:01;;;;;;;;;;;;;;;28.85;58.20;94867.06;5112104;28;2879;-53
2023/06/28 11:04:27;;;;;;;;;;;;;;;28.71;55.74;94858.63;5113545;28;1008;-53
2023/06/28 11:07:02;;;;;;;;;;;;;;;28.64;54.60;94853.41;5113201;28;1100;-53
2023/06/28 11:09:28;;;;;;;;;;;;;;;28.89;55.23;94849.69;5113203;28;1052;-53
2023/06/28 11:11:58;;;;;;;;;;;;;;;28.99;54.72;94857.91;5113276;28;1902;-53
2023/06/28 11:14:30;;;;;;;;;;;;;;;28.72;56.73;94849.25;5113095;28;952;-53
2023/06/28 11:17:01;;;;;;;;;;;;;;;28.81;57.93;94853.03;5113255;28;1056;-53
2023/06/28 11:19:27;;;;;;;;;;;;;;;28.82;56.11;94849.19;5113071;28;1119;-53
2023/06/28 11:21:57;;;;;;;;;;;;;;;28.71;58.28;94836.59;5108488;28;2856;-53
2023/06/28 11:24:29;;;;;;;;;;;;;;;28.95;57.66;94832.06;5092700;28;1111;-53
2023/06/28 11:26:55;;;;;;;;;;;;;;;29.10;55.55;94836.66;5094929;28;1049;-53
2023/06/28 11:29:21;;;;;;;;;;;;;;;28.93;54.09;94830.69;5096271;28;1091;-53
2023/06/28 11:31:49;;;;;;;;;;;;;;;28.97;53.13;94831.78;5103572;28;2553;-53
2023/06/28 11:34:15;;;;;;;;;;;;;;;28.95;56.93;94829.31;5094896;28;1079;-53
2023/06/28 11:36:42;;;;;;;;;;;;;;;28.87;53.47;94826.31;5096568;28;1048;-53
2023/06/28 11:39:12;;;;;;;;;;;;;;;28.83;56.79;94817.00;5096107;28;1112;-53
2023/06/28 11:41:39;;;;;;;;;;;;;;;28.40;54.00;94821.03;5096002;28;1112;-53
2023/06/28 11:44:06;;;;;;;;;;;;;;;28.04;53.48;94817.59;5096341;28;1000;-53
2023/06/28 11:46:33;;;;;;;;;;;;;;;28.08;56.13;94815.09;5096184;28;1054;-53
2023/06/28 11:49:02;;;;;;;;;;;;;;;28.42;53.81;94818.84;5096005;28;1040;-53
2023/06/28 11:51:29;;;;;;;;;;;;;;;28.62;52.71;94822.63;5100104;28;2954;-53
2023/06/28 11:53:55;;;;;;;;;;;;;;;28.85;51.68;94818.34;5095832;28;1144;-53
2023/06/28 11:56:51;;;;;;;;;;;;;;;28.89;53.18;94811.16;5101576;28;2748;-53
2023/06/28 11:59:18;;;;;;;;;;;;;;;29.27;54.05;94805.16;5106846;28;1399;-53
2023/06/28 12:01:45;;;;;;;;;;;;;;;29.27;54.50;94811.47;5113950;28;2668;-53
2023/06/28 12:04:21;;;;;;;;;;;;;;;29.06;54.41;94805.28;5116069;28;1003;-53
2023/06/28 12:06:48;;;;;;;;;;;;;;;29.07;57.80;94812.44;5115955;28;1007;-53
2023/06/28 12:09:24;;;;;;;;;;;;;;;29.06;52.70;94809.97;5116197;28;1055;-53
2023/06/28 12:11:51;;;;;;;;;;;;;;;29.06;55.62;94796.22;5115807;28;1980;-52
2023/06/28 12:14:18;;;;;;;;;;;;;;;28.88;54.11;94798.53;5115871;28;1056;-53
2023/06/28 12:16:45;;;;;;;;;;;;;;;29.05;56.03;94797.34;5115626;28;1211;-52
2023/06/28 12:19:14;;;;;;;;;;;;;;;29.09;54.09;94801.16;5115668;28;953;-53
2023/06/28 12:21:40;;;;;;;;;;;;;;;29.10;52.81;94805.53;5115667;28;1025;-53
2023/06/28 12:24:16;;;;;;;;;;;;;;;29.35;55.33;94807.31;5115884;28;1023;-53
2023/06/28 12:26:47;;;;;;;;;;;;;;;29.51;52.94;94803.31;5115624;28;1869;-53
2023/06/28 12:29:13;;;;;;;;;;;;;;;29.25;53.24;94797.19;5115479;28;1037;-52
2023/06/28 12:31:40;;;;;;;;;;;;;;;28.94;52.28;94802.88;5115403;28;1983;-53
2023/06/28 12:34:06;;;;;;;;;;;;;;;28.55;52.92;94789.94;5115679;28;1005;-52
2023/06/28 12:36:37;;;;;;;;;;;;;;;28.39;56.44;94793.84;5115247;28;960;-52
2023/06/28 12:39:03;;;;;;;;;;;;;;;28.22;57.55;94786.75;5115646;28;1031;-52
2023/06/28 12:41:29;;;;;;;;;;;;;;;28.16;59.22;94789.81;5102790;28;2916;-53
2023/06/28 12:43:56;;;;;;;;;;;;;;;28.32;57.45;94788.63;5093984;28;1067;-53
2023/06/28 12:46:22;;;;;;;;;;;;;;;28.29;59.16;94807.63;5103474;28;2890;-53
2023/06/28 12:48:49;;;;;;;;;;;;;;;28.24;58.54;94806.53;5095018;28;1150;-54
2023/06/28 12:51:15;;;;;;;;;;;;;;;28.13;58.64;94804.09;5094872;28;1993;-53
2023/06/28 12:53:41;;;;;;;;;;;;;;;27.98;60.63;94804.97;5094975;28;1023;-53
2023/06/28 12:56:07;;;;;;;;;;;;;;;27.89;59.68;94804.72;5096503;28;1808;-53